Aviation Digital Data Service (ADDS)

Output produced by METARs form (0411 UTC 28 July 2014)
found at http://aviationweather.gov/adds/metars/
 
KAND 280139Z 2802/2824 25012KT P6SM SCT250 
     FM280400 24008KT P6SM BKN050 
     FM280800 25010KT P6SM VCTS BKN050CB 
     FM281100 27012KT P6SM FEW150